Allingtown, Connecticut
Current Conditions -  °F | °C
As of 7:53 PM on Saturday 25 Oct 2014 (Local Time) from KHVN Reporting Station
Scattered Clouds Scattered Clouds  
Wind Chill: 62°   Ceiling: Unl
Heat Index: 62°   Visibility: 10mi
Dew Point: 50°   Wind: 7mph
Humidity: 65%   Direction: 210°SSW
Pressure: 29.61"   Gusts: NA
Location:  41.2716°N, 72.9666°W
Report Text: KHVN 252353Z 21006KT 10SM SCT085 17/10 A2961 RMK AO2 SLP028 T01670100 10189 20167 58010
Loading
Personal Weather Stations






























Interactive Weather Map
Tropical Storm Tracking
New forecast layout! Learn more

10-Day Weather Forecast

Advertisements
Track Severe Weather on mobile